Time;durP1;ratioP1;P1;durP2;ratioP2;P2;SDS_P1;SDS_P2;PMS_P1;PMS_P2;Temp;Humidity;BMP_temperature;BMP_pressure;BME280_temperature;BME280_humidity;BME280_pressure;Samples;Min_cycle;Max_cycle;Signal;HPM_P1;HPM_P2
2021/10/21 00:00:47;;;;;;;2.20;1.38;;;18.20;76.90;;;;;;2106837;28;20496;-71
2021/10/21 00:01:47;;;;;;;2.67;1.50;;;18.10;77.30;;;;;;2106903;28;20035;-72
2021/10/21 00:02:48;;;;;;;1.85;1.63;;;18.10;77.30;;;;;;2106738;28;20027;-71
2021/10/21 00:03:49;;;;;;;1.60;1.50;;;18.00;77.70;;;;;;2106018;28;20395;-72
2021/10/21 00:04:49;;;;;;;1.70;1.48;;;18.00;77.70;;;;;;2106111;28;20036;-71
2021/10/21 00:05:50;;;;;;;1.58;1.40;;;18.00;78.00;;;;;;2106711;28;20058;-72
2021/10/21 00:06:50;;;;;;;1.42;1.33;;;18.00;78.20;;;;;;2106716;28;20020;-76
2021/10/21 00:07:51;;;;;;;1.40;1.30;;;18.00;77.60;;;;;;2105920;28;20024;-72
2021/10/21 00:08:51;;;;;;;3.33;1.48;;;18.10;77.50;;;;;;2105801;28;20500;-72
2021/10/21 00:09:52;;;;;;;1.33;1.23;;;18.00;77.50;;;;;;2096735;28;20029;-72
2021/10/21 00:10:53;;;;;;;1.42;1.33;;;18.00;77.60;;;;;;2096743;28;20066;-72
2021/10/21 00:11:53;;;;;;;1.30;1.20;;;18.00;77.90;;;;;;2105775;28;20043;-72
2021/10/21 00:12:54;;;;;;;1.40;1.30;;;18.00;77.90;;;;;;2105554;28;20103;-73
2021/10/21 00:13:54;;;;;;;1.45;1.30;;;18.00;78.30;;;;;;2105808;28;20030;-73
2021/10/21 00:14:55;;;;;;;1.17;1.15;;;17.90;78.50;;;;;;2105858;28;20539;-73
2021/10/21 00:15:56;;;;;;;1.15;1.05;;;17.90;78.70;;;;;;2105496;28;20020;-73
2021/10/21 00:16:57;;;;;;;1.00;1.00;;;17.80;78.80;;;;;;2105748;28;20035;-73
2021/10/21 00:17:58;;;;;;;1.33;1.23;;;17.80;79.10;;;;;;2105719;28;20036;-72
2021/10/21 00:18:59;;;;;;;1.33;1.23;;;17.80;79.40;;;;;;2105694;28;20034;-72
2021/10/21 00:19:59;;;;;;;1.88;1.30;;;17.70;79.60;;;;;;2105668;28;20391;-72
2021/10/21 00:21:00;;;;;;;1.48;1.38;;;17.70;79.90;;;;;;2104554;28;20028;-73
2021/10/21 00:22:00;;;;;;;1.40;1.30;;;17.70;81.00;;;;;;2104799;28;20028;-73
2021/10/21 00:23:01;;;;;;;1.33;1.23;;;17.60;80.30;;;;;;2105014;28;20391;-73
2021/10/21 00:24:02;;;;;;;1.20;1.10;;;17.60;80.50;;;;;;2105543;28;20483;-73
2021/10/21 00:25:04;;;;;;;1.35;1.25;;;17.60;80.90;;;;;;2105516;28;20388;-73
2021/10/21 00:26:07;;;;;;;1.30;1.20;;;17.60;81.40;;;;;;2105432;28;20032;-73
2021/10/21 00:27:07;;;;;;;1.35;1.20;;;17.50;81.50;;;;;;2105740;28;20032;-73
2021/10/21 00:28:08;;;;;;;1.23;1.20;;;17.50;81.60;;;;;;2106033;28;20518;-73
2021/10/21 00:29:09;;;;;;;1.10;1.10;;;17.50;81.80;;;;;;2105763;28;20506;-73
2021/10/21 00:30:10;;;;;;;1.40;1.30;;;17.50;82.00;;;;;;2105342;28;20115;-73
2021/10/21 00:31:11;;;;;;;1.40;1.30;;;17.50;82.20;;;;;;2105104;28;20099;-72
2021/10/21 00:32:12;;;;;;;1.38;1.27;;;17.40;82.20;;;;;;2105801;28;20039;-73
2021/10/21 00:33:12;;;;;;;1.70;1.50;;;17.40;82.50;;;;;;2105271;28;20055;-73
2021/10/21 00:34:16;;;;;;;2.08;1.83;;;17.30;82.80;;;;;;2105789;28;20060;-73
2021/10/21 00:35:18;;;;;;;3.10;2.30;;;17.40;82.90;;;;;;2105710;28;20039;-73
2021/10/21 00:36:18;;;;;;;3.47;2.75;;;17.30;83.00;;;;;;2105956;28;20086;-72
2021/10/21 00:37:19;;;;;;;6.32;4.68;;;17.30;82.90;;;;;;2105686;28;20475;-73
2021/10/21 00:38:19;;;;;;;4.43;3.70;;;17.30;83.00;;;;;;2106183;28;20024;-73
2021/10/21 00:39:20;;;;;;;3.58;3.15;;;17.30;82.80;;;;;;2105447;28;20394;-72
2021/10/21 00:40:22;;;;;;;3.60;2.80;;;17.30;82.80;;;;;;2105897;28;20576;-73
2021/10/21 00:41:23;;;;;;;4.57;2.85;;;17.30;82.70;;;;;;2106026;28;20028;-73
2021/10/21 00:42:24;;;;;;;6.93;4.80;;;17.30;82.90;;;;;;2106274;28;20020;-73
2021/10/21 00:43:25;;;;;;;11.23;7.25;;;17.30;83.20;;;;;;2105432;28;20654;-73
2021/10/21 00:44:26;;;;;;;6.88;4.50;;;17.30;83.00;;;;;;2104618;28;20475;-73
2021/10/21 00:45:27;;;;;;;10.30;5.82;;;17.40;82.80;;;;;;2104794;28;20020;-72
2021/10/21 00:46:27;;;;;;;8.57;5.30;;;17.40;82.60;;;;;;2104858;28;20059;-72
2021/10/21 00:47:28;;;;;;;7.40;5.05;;;17.40;82.70;;;;;;2104618;28;20023;-72
2021/10/21 00:48:29;;;;;;;7.07;4.80;;;17.40;82.80;;;;;;2104893;28;20030;-72
2021/10/21 00:49:30;;;;;;;7.38;4.78;;;17.40;83.80;;;;;;2105639;28;20522;-72
2021/10/21 00:50:32;;;;;;;8.05;4.65;;;17.30;84.40;;;;;;2105674;28;20149;-72
2021/10/21 00:51:35;;;;;;;6.88;4.10;;;17.30;84.60;;;;;;2105085;28;20487;-72
2021/10/21 00:52:37;;;;;;;5.95;3.50;;;17.20;84.80;;;;;;2104907;28;20024;-71
2021/10/21 00:53:38;;;;;;;5.03;3.50;;;17.20;84.90;;;;;;2105309;28;20028;-71
2021/10/21 00:54:39;;;;;;;4.93;3.28;;;17.10;85.00;;;;;;2104890;28;20158;-72
2021/10/21 00:55:40;;;;;;;7.15;4.65;;;17.10;85.30;;;;;;2105084;28;20070;-71
2021/10/21 00:56:40;;;;;;;5.55;3.60;;;17.10;85.50;;;;;;2104782;28;20390;-72
2021/10/21 00:57:41;;;;;;;5.55;3.60;;;17.10;85.40;;;;;;2104772;28;20582;-71
2021/10/21 00:58:43;;;;;;;3.67;2.65;;;17.10;85.50;;;;;;2105477;28;20399;-71
2021/10/21 00:59:45;;;;;;;4.07;3.00;;;17.10;85.40;;;;;;2105340;28;20036;-73
2021/10/21 01:00:45;;;;;;;2.95;2.40;;;17.10;85.50;;;;;;2104627;28;20151;-72
2021/10/21 01:01:46;;;;;;;3.67;2.50;;;17.10;85.60;;;;;;2096088;28;20028;-72
2021/10/21 01:02:46;;;;;;;3.30;2.50;;;17.10;85.70;;;;;;2104777;28;20480;-72
2021/10/21 01:03:47;;;;;;;3.33;2.72;;;17.10;85.80;;;;;;2105061;28;20078;-72
2021/10/21 01:04:48;;;;;;;4.95;2.88;;;17.10;86.00;;;;;;2105466;28;20081;-72
2021/10/21 01:05:49;;;;;;;3.60;3.00;;;17.00;86.20;;;;;;2105551;28;20039;-72
2021/10/21 01:06:50;;;;;;;3.83;2.78;;;17.00;86.60;;;;;;2105470;28;20039;-72
2021/10/21 01:07:51;;;;;;;3.17;2.65;;;17.00;86.80;;;;;;2105401;28;20529;-72
2021/10/21 01:08:52;;;;;;;3.20;2.40;;;16.90;87.00;;;;;;2105203;28;20399;-72
2021/10/21 01:09:54;;;;;;;2.75;2.03;;;17.00;87.50;;;;;;2105328;28;20028;-72
2021/10/21 01:10:54;;;;;;;2.30;1.85;;;17.00;88.00;;;;;;2105413;28;20392;-71
2021/10/21 01:11:55;;;;;;;2.30;1.58;;;17.00;88.20;;;;;;2105408;28;20032;-71
2021/10/21 01:12:55;;;;;;;1.70;1.60;;;16.90;88.50;;;;;;2104457;28;20032;-72
2021/10/21 01:13:56;;;;;;;2.45;1.67;;;16.90;88.20;;;;;;2096238;28;20048;-71
2021/10/21 01:15:23;;;;;;;1.55;1.40;;;16.90;88.10;;;;;;2104793;28;20438;-71
2021/10/21 01:16:23;;;;;;;1.83;1.70;;;16.90;87.20;;;;;;2105354;28;20107;-73
2021/10/21 01:17:24;;;;;;;2.17;1.83;;;16.90;87.10;;;;;;2105194;28;20031;-73
2021/10/21 01:18:25;;;;;;;2.30;1.55;;;16.90;87.10;;;;;;2105265;28;20428;-73
2021/10/21 01:19:26;;;;;;;2.03;1.80;;;16.90;87.20;;;;;;2105333;28;20032;-71
2021/10/21 01:20:27;;;;;;;2.42;2.08;;;16.80;87.20;;;;;;2104802;28;20074;-71
2021/10/21 01:21:27;;;;;;;2.95;2.30;;;16.80;87.60;;;;;;2105481;28;20036;-71
2021/10/21 01:22:28;;;;;;;3.03;2.20;;;16.80;88.10;;;;;;2106629;28;20106;-72
2021/10/21 01:23:29;;;;;;;2.55;2.08;;;16.80;87.50;;;;;;2105819;28;20032;-72
2021/10/21 01:24:29;;;;;;;2.30;1.75;;;16.80;87.60;;;;;;2105600;28;20043;-72
2021/10/21 01:25:30;;;;;;;2.20;2.00;;;16.80;87.90;;;;;;2104872;28;20420;-73
2021/10/21 01:26:31;;;;;;;3.17;2.35;;;16.80;88.00;;;;;;2105479;28;20476;-73
2021/10/21 01:27:31;;;;;;;2.88;2.05;;;16.80;87.90;;;;;;2105528;28;20486;-73
2021/10/21 01:28:32;;;;;;;3.03;1.95;;;16.80;87.90;;;;;;2105376;28;20461;-72
2021/10/21 01:29:34;;;;;;;2.83;2.10;;;16.80;88.50;;;;;;2105427;28;20024;-73
2021/10/21 01:30:35;;;;;;;2.20;2.00;;;16.80;88.40;;;;;;2105430;28;20620;-72
2021/10/21 01:31:38;;;;;;;1.98;1.73;;;16.80;88.50;;;;;;2105145;28;20085;-73
2021/10/21 01:32:39;;;;;;;3.80;2.40;;;16.80;88.40;;;;;;2104996;28;20522;-72
2021/10/21 01:33:40;;;;;;;3.83;2.88;;;16.80;88.90;;;;;;2104993;28;20031;-72
2021/10/21 01:34:40;;;;;;;5.10;3.00;;;16.70;89.30;;;;;;2105059;28;20017;-72
2021/10/21 01:35:41;;;;;;;4.07;2.95;;;16.70;89.90;;;;;;2104746;28;20549;-73
2021/10/21 01:36:44;;;;;;;3.50;2.60;;;16.70;90.00;;;;;;2096351;28;20530;-72
2021/10/21 01:37:47;;;;;;;3.83;2.67;;;16.70;90.10;;;;;;2104677;28;20038;-73
2021/10/21 01:38:48;;;;;;;4.65;2.55;;;16.70;90.30;;;;;;2105242;28;20068;-73
2021/10/21 01:39:48;;;;;;;3.03;2.45;;;16.70;90.30;;;;;;2104660;28;20078;-73
2021/10/21 01:40:49;;;;;;;2.58;2.38;;;16.70;90.40;;;;;;2104638;28;20491;-72
2021/10/21 01:41:50;;;;;;;2.72;2.38;;;16.70;90.50;;;;;;2105490;28;20372;-73
2021/10/21 01:42:51;;;;;;;2.65;2.40;;;16.70;90.80;;;;;;2105263;28;20126;-73
2021/10/21 01:43:51;;;;;;;2.20;2.00;;;16.70;90.90;;;;;;2104968;28;20042;-73
2021/10/21 01:44:52;;;;;;;4.88;2.20;;;16.70;91.20;;;;;;2105342;28;20052;-72
2021/10/21 01:45:53;;;;;;;2.47;2.08;;;16.80;91.20;;;;;;2105390;28;20024;-73
2021/10/21 01:46:53;;;;;;;2.13;1.92;;;16.80;91.20;;;;;;2104665;28;20027;-73
2021/10/21 01:47:54;;;;;;;2.38;2.00;;;16.80;91.20;;;;;;2104477;28;20107;-73
2021/10/21 01:48:55;;;;;;;2.42;2.08;;;16.80;91.40;;;;;;2105344;28;20023;-72
2021/10/21 01:49:55;;;;;;;2.15;1.95;;;16.90;91.40;;;;;;2105534;28;20024;-72
2021/10/21 01:50:56;;;;;;;2.72;1.70;;;16.80;91.30;;;;;;2105404;28;20077;-72
2021/10/21 01:51:56;;;;;;;2.25;1.80;;;16.90;91.00;;;;;;2106266;28;20028;-73
2021/10/21 01:52:57;;;;;;;2.30;1.50;;;17.00;91.00;;;;;;2105639;28;20115;-72
2021/10/21 01:53:58;;;;;;;2.33;1.30;;;17.00;90.90;;;;;;2106046;28;20036;-73
2021/10/21 01:54:59;;;;;;;1.60;1.50;;;17.00;90.80;;;;;;2105009;28;20024;-72
2021/10/21 01:55:59;;;;;;;1.75;1.40;;;17.10;90.70;;;;;;2104613;28;20631;-73
2021/10/21 01:57:00;;;;;;;2.97;1.60;;;17.10;90.70;;;;;;2105379;28;20032;-72
2021/10/21 01:58:01;;;;;;;2.33;1.60;;;17.20;90.40;;;;;;2105209;28;20028;-72
2021/10/21 01:59:01;;;;;;;1.65;1.55;;;17.30;90.50;;;;;;2105258;28;20024;-72
2021/10/21 02:00:07;;;;;;;2.17;1.73;;;17.20;90.80;;;;;;2105106;28;20032;-72
2021/10/21 02:01:12;;;;;;;1.55;1.45;;;17.30;90.70;;;;;;2105100;28;20067;-73
2021/10/21 02:02:12;;;;;;;4.55;1.63;;;17.20;90.80;;;;;;2105196;28;20632;-72
2021/10/21 02:03:13;;;;;;;2.50;1.70;;;17.20;91.10;;;;;;2104930;28;20067;-72
2021/10/21 02:04:13;;;;;;;2.22;1.70;;;17.30;91.50;;;;;;2105198;28;20065;-72
2021/10/21 02:05:16;;;;;;;3.78;1.70;;;17.40;91.60;;;;;;2104416;28;20032;-72
2021/10/21 02:06:17;;;;;;;2.13;1.70;;;17.50;91.70;;;;;;2104555;28;20566;-72
2021/10/21 02:07:17;;;;;;;2.45;1.70;;;17.50;91.70;;;;;;2104595;28;20040;-72
2021/10/21 02:08:18;;;;;;;2.17;1.92;;;17.50;91.80;;;;;;2104681;28;20035;-72
2021/10/21 02:09:18;;;;;;;2.00;1.80;;;17.60;91.50;;;;;;2104610;28;20052;-72
2021/10/21 02:10:20;;;;;;;1.95;1.70;;;17.70;91.40;;;;;;2104524;28;20028;-72
2021/10/21 02:11:21;;;;;;;1.80;1.70;;;17.60;91.50;;;;;;2105103;28;20039;-72
2021/10/21 02:12:22;;;;;;;4.10;2.00;;;17.60;91.40;;;;;;2105010;28;20059;-73
2021/10/21 02:13:23;;;;;;;2.40;1.98;;;17.60;91.50;;;;;;2104847;28;20039;-72
2021/10/21 02:14:24;;;;;;;3.97;1.95;;;17.70;91.50;;;;;;2105216;28;20109;-72
2021/10/21 02:15:24;;;;;;;4.03;1.90;;;17.60;91.50;;;;;;2105188;28;20094;-72
2021/10/21 02:16:26;;;;;;;2.65;1.90;;;17.60;91.70;;;;;;2104670;28;20027;-72
2021/10/21 02:17:26;;;;;;;2.63;1.75;;;17.60;91.80;;;;;;2104885;28;20020;-72
2021/10/21 02:18:28;;;;;;;5.45;1.95;;;17.60;92.00;;;;;;2105445;28;20024;-72
2021/10/21 02:19:28;;;;;;;3.10;1.90;;;17.60;91.80;;;;;;2106457;28;20054;-72
2021/10/21 02:20:29;;;;;;;4.75;1.90;;;17.70;91.80;;;;;;2106197;28;20058;-71
2021/10/21 02:21:30;;;;;;;2.20;2.00;;;17.70;91.70;;;;;;2106117;28;20173;-71
2021/10/21 02:22:30;;;;;;;3.05;1.75;;;17.70;91.70;;;;;;2105509;28;20073;-72
2021/10/21 02:23:31;;;;;;;4.75;2.05;;;17.70;91.80;;;;;;2104960;28;20032;-71
2021/10/21 02:24:32;;;;;;;2.78;1.98;;;17.70;91.70;;;;;;2105308;28;20028;-71
2021/10/21 02:25:32;;;;;;;3.15;2.00;;;17.70;92.10;;;;;;2105492;28;20024;-72
2021/10/21 02:26:33;;;;;;;4.63;1.90;;;17.70;92.10;;;;;;2104613;28;20082;-72
2021/10/21 02:27:34;;;;;;;3.03;2.03;;;17.60;92.30;;;;;;2104330;28;20032;-72
2021/10/21 02:28:34;;;;;;;4.63;2.28;;;17.70;92.30;;;;;;2104631;28;20020;-73
2021/10/21 02:29:35;;;;;;;3.78;2.50;;;17.70;92.70;;;;;;2104648;28;20448;-73
2021/10/21 02:30:36;;;;;;;3.25;2.33;;;17.70;92.90;;;;;;2105094;28;20375;-73
2021/10/21 02:31:36;;;;;;;2.95;2.10;;;17.60;92.90;;;;;;2105090;28;20016;-73
2021/10/21 02:32:38;;;;;;;3.45;2.10;;;17.60;93.20;;;;;;2105182;28;20028;-74
2021/10/21 02:33:39;;;;;;;2.90;2.20;;;17.60;93.80;;;;;;2105088;28;20471;-73
2021/10/21 02:34:40;;;;;;;2.75;2.20;;;17.50;93.80;;;;;;2105269;28;20073;-74
2021/10/21 02:35:41;;;;;;;4.75;2.38;;;17.50;93.70;;;;;;2105158;28;20101;-75
2021/10/21 02:36:41;;;;;;;3.88;2.30;;;17.50;94.10;;;;;;2105283;28;20056;-74
2021/10/21 02:37:42;;;;;;;4.30;2.40;;;17.50;94.60;;;;;;2105339;28;20032;-73
2021/10/21 02:38:43;;;;;;;3.35;2.33;;;17.50;95.00;;;;;;2104570;28;20519;-72
2021/10/21 02:39:43;;;;;;;3.03;2.20;;;17.40;96.00;;;;;;2104530;28;20036;-73
2021/10/21 02:40:44;;;;;;;5.18;2.10;;;17.30;96.40;;;;;;2104868;28;20036;-73
2021/10/21 02:41:45;;;;;;;5.13;2.33;;;17.30;97.50;;;;;;2104401;28;20032;-73
2021/10/21 02:42:45;;;;;;;4.80;2.20;;;17.20;98.10;;;;;;2104412;28;20032;-73
2021/10/21 02:43:46;;;;;;;4.45;2.50;;;17.10;98.40;;;;;;2104111;28;20419;-72
2021/10/21 02:44:46;;;;;;;3.85;2.40;;;17.00;99.40;;;;;;2105013;28;20047;-73
2021/10/21 02:45:47;;;;;;;4.90;2.45;;;17.00;99.90;;;;;;2105911;28;20039;-72
2021/10/21 02:46:48;;;;;;;4.43;2.45;;;16.80;99.90;;;;;;2106603;28;20054;-72
2021/10/21 02:47:48;;;;;;;4.20;2.30;;;16.70;99.90;;;;;;2106020;28;20394;-72
2021/10/21 02:48:49;;;;;;;3.72;2.10;;;16.60;99.90;;;;;;2105937;28;20028;-72
2021/10/21 02:49:50;;;;;;;2.70;2.20;;;16.60;99.90;;;;;;2106672;28;20028;-72
2021/10/21 02:50:50;;;;;;;3.03;2.00;;;16.40;99.90;;;;;;2105843;28;20035;-72
2021/10/21 02:51:51;;;;;;;3.45;2.00;;;16.40;99.90;;;;;;2097342;28;20020;-73
2021/10/21 02:52:51;;;;;;;6.80;2.10;;;16.30;99.90;;;;;;2106032;28;20097;-72
2021/10/21 02:53:52;;;;;;;2.80;2.00;;;16.20;99.90;;;;;;2106260;28;20672;-72
2021/10/21 02:54:53;;;;;;;3.90;2.20;;;16.20;99.90;;;;;;2106717;28;20296;-72
2021/10/21 02:55:55;;;;;;;3.88;2.20;;;16.10;99.90;;;;;;2106617;28;20058;-72
2021/10/21 02:56:55;;;;;;;2.30;1.90;;;16.10;99.90;;;;;;2106656;28;20502;-72
2021/10/21 02:57:56;;;;;;;4.13;2.00;;;16.00;99.90;;;;;;2106634;28;20114;-72
2021/10/21 02:58:56;;;;;;;2.53;2.20;;;16.00;99.90;;;;;;2106562;28;20024;-72
2021/10/21 02:59:57;;;;;;;3.67;2.17;;;15.90;99.90;;;;;;2106475;28;20054;-72
2021/10/21 03:00:58;;;;;;;3.35;2.15;;;15.90;99.90;;;;;;2106931;28;20089;-73
2021/10/21 03:01:58;;;;;;;3.17;2.05;;;15.90;99.90;;;;;;2107708;28;20483;-72
2021/10/21 03:02:59;;;;;;;2.58;2.13;;;15.80;99.90;;;;;;2106711;28;20067;-72
2021/10/21 03:03:59;;;;;;;3.03;2.10;;;15.80;99.90;;;;;;2107570;28;20032;-72
2021/10/21 03:05:00;;;;;;;2.33;1.80;;;15.80;99.90;;;;;;2107695;28;20039;-73
2021/10/21 03:06:01;;;;;;;2.30;2.10;;;15.70;99.90;;;;;;2107520;28;20024;-73
2021/10/21 03:07:01;;;;;;;4.38;2.40;;;15.70;99.90;;;;;;2107227;28;20024;-72
2021/10/21 03:08:02;;;;;;;2.90;2.30;;;15.70;99.90;;;;;;2106957;28;20051;-72
2021/10/21 03:09:03;;;;;;;2.83;2.08;;;15.60;99.90;;;;;;2105828;28;20040;-72
2021/10/21 03:10:04;;;;;;;2.75;2.42;;;15.60;99.90;;;;;;2105771;28;20063;-72
2021/10/21 03:11:04;;;;;;;3.47;2.33;;;15.60;99.90;;;;;;2106445;28;20030;-72
2021/10/21 03:12:05;;;;;;;2.85;1.95;;;15.60;99.90;;;;;;2106258;28;20036;-72
2021/10/21 03:13:06;;;;;;;3.75;2.10;;;15.50;99.90;;;;;;2106090;28;20028;-72
2021/10/21 03:14:07;;;;;;;2.55;2.00;;;15.60;99.90;;;;;;2106183;28;20523;-72
2021/10/21 03:15:07;;;;;;;3.38;1.90;;;15.50;99.90;;;;;;2106367;28;20123;-72
2021/10/21 03:16:08;;;;;;;3.50;2.00;;;15.50;99.90;;;;;;2106453;28;20047;-72
2021/10/21 03:17:09;;;;;;;2.60;2.20;;;15.50;99.90;;;;;;2106267;28;20056;-72
2021/10/21 03:18:10;;;;;;;2.17;1.98;;;15.50;99.90;;;;;;2106467;28;20103;-72
2021/10/21 03:19:11;;;;;;;2.10;1.90;;;15.50;99.90;;;;;;2105874;28;20031;-72
2021/10/21 03:20:12;;;;;;;2.20;2.00;;;15.50;99.90;;;;;;2105640;28;20031;-72
2021/10/21 03:21:13;;;;;;;3.13;1.85;;;15.40;99.90;;;;;;2105574;28;20043;-72
2021/10/21 03:22:13;;;;;;;2.45;2.10;;;15.50;99.90;;;;;;2105556;28;20082;-72
2021/10/21 03:23:14;;;;;;;2.45;2.10;;;15.40;99.90;;;;;;2105366;28;20328;-72
2021/10/21 03:24:15;;;;;;;3.25;2.20;;;15.40;99.90;;;;;;2105704;28;20028;-72
2021/10/21 03:25:15;;;;;;;3.20;2.17;;;15.40;99.90;;;;;;2106734;28;20447;-72
2021/10/21 03:26:16;;;;;;;2.60;2.40;;;15.30;99.90;;;;;;2106454;28;20388;-72
2021/10/21 03:27:17;;;;;;;3.10;2.20;;;15.30;99.90;;;;;;2097247;28;20032;-72
2021/10/21 03:28:18;;;;;;;3.13;2.15;;;15.30;99.90;;;;;;2106135;28;20101;-72
2021/10/21 03:29:18;;;;;;;2.45;2.20;;;15.20;99.90;;;;;;2106495;28;20059;-72
2021/10/21 03:30:19;;;;;;;2.65;2.10;;;15.20;99.90;;;;;;2106205;28;20016;-72
2021/10/21 03:31:19;;;;;;;4.65;2.30;;;15.20;99.90;;;;;;2105346;28;20040;-72
2021/10/21 03:32:20;;;;;;;2.45;2.25;;;15.20;99.90;;;;;;2105499;28;20032;-72
2021/10/21 03:33:21;;;;;;;3.72;2.35;;;15.20;99.90;;;;;;2105824;28;20494;-72
2021/10/21 03:34:21;;;;;;;3.47;2.10;;;15.20;99.90;;;;;;2106123;28;20034;-72
2021/10/21 03:35:22;;;;;;;2.30;2.10;;;15.20;99.90;;;;;;2105940;28;20035;-72
2021/10/21 03:36:23;;;;;;;2.95;2.35;;;15.20;99.90;;;;;;2106152;28;20540;-72
2021/10/21 03:37:23;;;;;;;5.22;2.45;;;15.20;99.90;;;;;;2105433;28;20059;-72
2021/10/21 03:38:24;;;;;;;2.53;2.20;;;15.20;99.90;;;;;;2105442;28;20487;-72
2021/10/21 03:39:25;;;;;;;4.15;2.20;;;15.20;99.90;;;;;;2106122;28;20035;-72
2021/10/21 03:40:26;;;;;;;3.67;2.30;;;15.20;99.90;;;;;;2106058;28;20048;-72
2021/10/21 03:41:26;;;;;;;2.40;2.20;;;15.20;99.90;;;;;;2105975;28;20071;-72
2021/10/21 03:42:27;;;;;;;4.05;2.22;;;15.10;99.90;;;;;;2106176;28;20103;-72
2021/10/21 03:43:28;;;;;;;2.40;2.20;;;15.20;99.90;;;;;;2105711;28;20477;-73
2021/10/21 03:44:28;;;;;;;2.75;2.30;;;15.20;99.90;;;;;;2106132;28;20035;-72
2021/10/21 03:45:29;;;;;;;2.22;2.03;;;15.20;99.90;;;;;;2105799;28;20028;-72
2021/10/21 03:46:30;;;;;;;2.28;2.08;;;15.30;99.90;;;;;;2105939;28;20016;-72
2021/10/21 03:47:31;;;;;;;2.30;2.00;;;15.30;99.90;;;;;;2105331;28;20027;-72
2021/10/21 03:48:31;;;;;;;2.20;2.00;;;15.20;99.90;;;;;;2096917;28;20020;-73
2021/10/21 03:49:32;;;;;;;4.25;2.28;;;15.30;99.90;;;;;;2105394;28;20028;-72
2021/10/21 03:50:32;;;;;;;2.22;1.95;;;15.30;99.90;;;;;;2105895;28;20092;-72
2021/10/21 03:51:33;;;;;;;3.65;2.10;;;15.30;99.90;;;;;;2105204;28;20032;-72
2021/10/21 03:52:34;;;;;;;2.85;2.30;;;15.30;99.90;;;;;;2106257;28;20038;-72
2021/10/21 03:53:35;;;;;;;4.18;2.05;;;15.30;99.90;;;;;;2107042;28;20086;-73
2021/10/21 03:54:35;;;;;;;2.20;2.00;;;15.30;99.90;;;;;;2107891;28;20040;-73
2021/10/21 03:55:37;;;;;;;3.35;2.20;;;15.30;99.90;;;;;;2107262;28;20073;-73
2021/10/21 03:56:38;;;;;;;4.35;2.30;;;15.30;99.90;;;;;;2105374;28;20042;-71
2021/10/21 03:57:38;;;;;;;2.38;2.17;;;15.30;99.90;;;;;;2105378;28;20048;-72
2021/10/21 03:58:39;;;;;;;3.05;2.40;;;15.40;99.90;;;;;;2105267;28;20020;-71
2021/10/21 03:59:40;;;;;;;3.03;2.30;;;15.30;99.90;;;;;;2105291;28;20028;-72
2021/10/21 04:00:42;;;;;;;2.90;2.30;;;15.40;99.90;;;;;;2106505;28;20035;-72
2021/10/21 04:01:42;;;;;;;2.58;2.38;;;15.30;99.90;;;;;;2104902;28;20024;-72
2021/10/21 04:02:43;;;;;;;2.35;2.10;;;15.40;99.90;;;;;;2105285;28;20531;-72
2021/10/21 04:03:43;;;;;;;2.90;2.20;;;15.40;99.90;;;;;;2104903;28;20067;-72
2021/10/21 04:04:44;;;;;;;2.17;2.08;;;15.40;99.90;;;;;;2105236;28;20031;-71
2021/10/21 04:05:44;;;;;;;3.63;2.50;;;15.40;99.90;;;;;;2105297;28;20031;-71
2021/10/21 04:06:45;;;;;;;3.30;2.35;;;15.40;99.90;;;;;;2105240;28;20031;-72
2021/10/21 04:07:46;;;;;;;2.45;2.25;;;15.40;99.90;;;;;;2105958;28;20039;-71
2021/10/21 04:08:46;;;;;;;2.80;2.47;;;15.40;99.90;;;;;;2096891;28;20016;-72
2021/10/21 04:09:47;;;;;;;3.58;2.53;;;15.40;99.90;;;;;;2096905;28;20556;-72
2021/10/21 04:10:47;;;;;;;2.58;2.38;;;15.40;99.90;;;;;;2105799;28;20020;-71
2021/10/21 04:11:48;;;;;;;2.88;2.60;;;15.40;99.90;;;;;;2105138;28;20101;-71
2021/10/21 04:12:49;;;;;;;4.78;2.50;;;15.40;99.90;;;;;;2105159;28;20032;-72
2021/10/21 04:13:49;;;;;;;4.28;2.58;;;15.40;99.90;;;;;;2105594;28;20155;-71
2021/10/21 04:14:50;;;;;;;2.85;2.55;;;15.40;99.90;;;;;;2105889;28;20032;-72
2021/10/21 04:15:51;;;;;;;3.45;2.70;;;15.40;99.90;;;;;;2105884;28;20040;-73
2021/10/21 04:16:52;;;;;;;2.65;2.22;;;15.50;99.90;;;;;;2105837;28;20078;-73
2021/10/21 04:17:54;;;;;;;2.97;2.63;;;15.50;99.90;;;;;;2105813;28;20073;-74
2021/10/21 04:18:55;;;;;;;2.67;2.15;;;15.50;99.90;;;;;;2105777;28;20135;-76
2021/10/21 04:19:55;;;;;;;2.80;2.28;;;15.50;99.90;;;;;;2105802;28;20028;-75
2021/10/21 04:20:56;;;;;;;2.90;2.60;;;15.50;99.90;;;;;;2105736;28;20671;-73
2021/10/21 04:21:56;;;;;;;2.95;2.65;;;15.40;99.90;;;;;;2105690;28;20077;-73
2021/10/21 04:22:57;;;;;;;2.72;2.22;;;15.50;99.90;;;;;;2105381;28;20024;-73
2021/10/21 04:23:58;;;;;;;2.53;2.33;;;15.50;99.90;;;;;;2105805;28;20032;-71
2021/10/21 04:24:59;;;;;;;2.42;2.20;;;15.50;99.90;;;;;;2105388;28;20036;-72
2021/10/21 04:25:59;;;;;;;2.40;2.20;;;15.50;99.90;;;;;;2088754;28;20021;-71
2021/10/21 04:27:00;;;;;;;2.47;2.28;;;15.50;99.90;;;;;;2096688;28;20029;-71
2021/10/21 04:28:00;;;;;;;2.30;2.10;;;15.50;99.90;;;;;;2105606;28;20024;-73
2021/10/21 04:29:01;;;;;;;2.00;1.80;;;15.50;99.90;;;;;;2105616;28;20024;-72
2021/10/21 04:30:03;;;;;;;2.30;2.00;;;15.60;99.90;;;;;;2105498;28;20032;-71
2021/10/21 04:31:04;;;;;;;1.60;1.50;;;15.70;99.90;;;;;;2105673;28;20036;-72
2021/10/21 04:32:05;;;;;;;1.42;1.30;;;15.80;99.90;;;;;;2105592;28;20020;-71
2021/10/21 04:33:06;;;;;;;1.30;1.20;;;16.00;99.90;;;;;;2105387;28;20024;-71
2021/10/21 04:34:07;;;;;;;1.80;1.40;;;16.30;99.90;;;;;;2105644;28;20081;-72
2021/10/21 04:35:08;;;;;;;2.30;1.10;;;16.50;99.90;;;;;;2105523;28;20109;-72
2021/10/21 04:36:09;;;;;;;1.95;1.35;;;16.60;99.60;;;;;;2105431;28;20101;-72
2021/10/21 04:37:09;;;;;;;1.65;1.40;;;16.70;98.90;;;;;;2105735;28;20024;-72
2021/10/21 04:38:10;;;;;;;5.53;1.40;;;16.80;98.70;;;;;;2105674;28;20054;-72
2021/10/21 04:39:10;;;;;;;1.33;1.23;;;16.80;97.60;;;;;;2104966;28;20020;-73
2021/10/21 04:40:11;;;;;;;1.55;1.30;;;16.90;97.10;;;;;;2104954;28;20020;-72
2021/10/21 04:41:12;;;;;;;1.65;1.10;;;16.90;96.80;;;;;;2105508;28;20052;-72
2021/10/21 04:42:12;;;;;;;3.08;1.38;;;17.00;95.80;;;;;;2105543;28;20020;-73
2021/10/21 04:43:16;;;;;;;2.28;1.30;;;17.00;96.10;;;;;;2104780;28;20028;-72
2021/10/21 04:44:16;;;;;;;1.30;1.20;;;17.00;95.70;;;;;;2104971;28;20028;-72
2021/10/21 04:45:17;;;;;;;1.70;1.42;;;17.00;95.20;;;;;;2105526;28;20032;-72
2021/10/21 04:46:17;;;;;;;2.70;1.60;;;17.00;95.50;;;;;;2105705;28;20032;-72
2021/10/21 04:47:18;;;;;;;2.30;1.50;;;17.00;95.50;;;;;;2105685;28;20034;-72
2021/10/21 04:48:19;;;;;;;2.05;1.40;;;17.00;96.20;;;;;;2105524;28;20105;-72
2021/10/21 04:49:19;;;;;;;4.28;1.70;;;16.90;95.80;;;;;;2105079;28;20035;-72
2021/10/21 04:50:20;;;;;;;1.90;1.70;;;16.90;95.90;;;;;;2104954;28;20070;-72
2021/10/21 04:51:21;;;;;;;3.47;1.63;;;16.90;96.20;;;;;;2105476;28;20032;-71
2021/10/21 04:52:21;;;;;;;2.05;1.70;;;16.90;95.10;;;;;;2105690;28;20039;-72
2021/10/21 04:53:22;;;;;;;4.80;1.60;;;17.00;94.80;;;;;;2105158;28;20042;-71
2021/10/21 04:54:22;;;;;;;3.28;1.83;;;17.10;94.30;;;;;;2105557;28;20087;-72
2021/10/21 04:55:24;;;;;;;2.45;1.60;;;17.10;94.30;;;;;;2105272;28;20042;-71
2021/10/21 04:56:25;;;;;;;2.53;1.63;;;17.20;93.90;;;;;;2105494;28;20027;-71
2021/10/21 04:57:25;;;;;;;3.03;1.70;;;17.20;93.90;;;;;;2105603;28;20544;-72
2021/10/21 04:58:26;;;;;;;3.55;1.88;;;17.20;93.90;;;;;;2105483;28;20028;-72
2021/10/21 04:59:26;;;;;;;3.53;1.70;;;17.10;94.10;;;;;;2105405;28;20591;-71
2021/10/21 05:00:27;;;;;;;1.90;1.80;;;17.10;94.10;;;;;;2105366;28;20039;-71
2021/10/21 05:01:28;;;;;;;2.17;1.70;;;17.20;93.70;;;;;;2096293;28;20032;-71
2021/10/21 05:02:28;;;;;;;2.00;1.80;;;17.20;93.80;;;;;;2096560;28;20021;-71
2021/10/21 05:03:29;;;;;;;3.20;1.60;;;17.20;93.80;;;;;;2105378;28;20126;-72
2021/10/21 05:04:29;;;;;;;2.47;2.00;;;17.20;93.80;;;;;;2105639;28;20046;-71
2021/10/21 05:05:30;;;;;;;2.00;1.80;;;17.20;94.30;;;;;;2105603;28;20091;-73
2021/10/21 05:06:31;;;;;;;3.28;2.13;;;17.10;94.10;;;;;;2105759;28;20135;-72
2021/10/21 05:07:31;;;;;;;2.92;2.20;;;17.10;94.40;;;;;;2104898;28;20024;-73
2021/10/21 05:08:32;;;;;;;2.50;2.30;;;17.10;94.40;;;;;;2105813;28;20024;-72
2021/10/21 05:09:32;;;;;;;2.80;2.53;;;17.10;94.20;;;;;;2105480;28;20027;-72
2021/10/21 05:10:33;;;;;;;2.80;2.50;;;17.10;94.20;;;;;;2105470;28;20055;-72
2021/10/21 05:11:34;;;;;;;2.65;2.40;;;17.10;94.30;;;;;;2105337;28;20032;-72
2021/10/21 05:12:34;;;;;;;3.70;2.60;;;17.10;94.50;;;;;;2105462;28;20114;-72
2021/10/21 05:13:35;;;;;;;2.60;2.38;;;17.00;94.60;;;;;;2104402;28;20048;-72
2021/10/21 05:14:36;;;;;;;3.97;2.60;;;17.00;94.70;;;;;;2104786;28;20142;-71
2021/10/21 05:15:36;;;;;;;2.90;2.53;;;17.00;94.90;;;;;;2105348;28;20077;-71
2021/10/21 05:16:37;;;;;;;3.10;2.80;;;17.00;94.90;;;;;;2105136;28;20233;-72
2021/10/21 05:17:37;;;;;;;3.10;2.80;;;17.00;95.30;;;;;;2104714;28;20032;-71